Kezdőlap
METAR-TAF:

METAR-TAF

Repülőterek :

Ivalói repülőtér

Ivalo, Finnország

földrajzi szélesség: 68-37N, földrajzi hosszúság: 027-25E, magasság: 147 m

Jelenlegi meteorológiai megfigyelések

A jelentés 17 perccel ezelõtt készült, 02:20 UTC
Különbözõ irányokból fújó szél 1 kt
Hőmérséklet -1°C
Páratartalom 93%
Légköri nyomás 1027 hPa
Látótávolság 10 km, vagy több
Borult 3400 lábon

METAR: EFIV 250220Z AUTO VRB01KT 9999 OVC034 M01/M02 Q1027

Idő: 05:37 (02:37 UTC)

Előrejelzés

A jelentés 15 órával és 7 perccel ezelõtt készült, 11:30 UTC
Az előrejelzés 24-én 12 óra UTC és 24-én 16 óra UTC között érvényes
Észak-északkeleti szél 5 kt
Látótávolság 10 km, vagy több
Szakadozott felhőzet 3500 lábon

TAF: EFIV 241130Z 2412/2416 03005KT 9999 BKN035

Meteorológiai megfigyelések és előrejelzések több, mint 4000 repülőtéren (METAR és TAF jelentéseket).

A térképen piros és sárga pontok jelzik az elérhető meteorológiai állomásokat.

Mozgassa az egeret a pont fölött, hogy megjelenjen az állomás neve.

Azután kattintson az időjárási megfigyelések és előrejelzések megtekintéséhez.

A térkép megváltoztatása: kattintson a fekete keresztel jelölt zöld gombra ráközelítéshez, a vonallal jelölt zöld gombra távolításhoz, vagy a zöld nyilakra a szomszédos térképek eléréséhez.


METAR-TAF: